createdAt,value
2023-01-19T00:00:55.549Z,5.07
2023-01-19T00:03:22.543Z,5.06
2023-01-19T00:05:49.784Z,4.94
2023-01-19T00:08:17.552Z,4.96
2023-01-19T00:10:53.086Z,4.98
2023-01-19T00:13:20.087Z,4.99
2023-01-19T00:15:47.326Z,5.06
2023-01-19T00:18:14.370Z,4.94
2023-01-19T00:20:41.547Z,4.94
2023-01-19T00:23:09.543Z,5.06
2023-01-19T00:25:42.431Z,4.97
2023-01-19T00:28:15.533Z,4.96
2023-01-19T00:30:42.894Z,4.97
2023-01-19T00:33:13.741Z,5.01
2023-01-19T00:35:42.707Z,5.12
2023-01-19T00:38:11.669Z,5.05
2023-01-19T00:40:38.678Z,5.01
2023-01-19T00:43:05.681Z,4.98
2023-01-19T00:45:34.224Z,5.01
2023-01-19T00:48:01.324Z,4.98
2023-01-19T00:50:30.684Z,4.92
2023-01-19T00:53:01.485Z,5.00
2023-01-19T00:55:29.716Z,4.91
2023-01-19T00:57:57.590Z,5.04
2023-01-19T01:00:25.752Z,4.96
2023-01-19T01:02:53.869Z,4.97
2023-01-19T01:05:21.358Z,5.01
2023-01-19T01:07:49.609Z,4.96
2023-01-19T01:10:22.994Z,4.93
2023-01-19T01:13:20.012Z,4.97
2023-01-19T01:15:37.417Z,4.96
2023-01-19T01:18:04.411Z,5.00
2023-01-19T01:20:33.667Z,4.97
2023-01-19T01:23:01.329Z,4.90
2023-01-19T01:25:31.067Z,4.99
2023-01-19T01:27:58.142Z,4.93
2023-01-19T01:30:25.130Z,4.96
2023-01-19T01:32:52.143Z,5.01
2023-01-19T01:35:19.319Z,4.92
2023-01-19T01:37:46.311Z,4.97
2023-01-19T01:40:17.313Z,4.90
2023-01-19T01:42:45.477Z,4.89
2023-01-19T01:45:35.629Z,4.85
2023-01-19T01:48:06.308Z,4.86
2023-01-19T01:50:38.204Z,4.87
2023-01-19T01:53:13.831Z,4.83
2023-01-19T01:55:48.230Z,4.79
2023-01-19T01:58:16.266Z,4.84
2023-01-19T02:01:02.168Z,4.88
2023-01-19T02:03:29.419Z,4.78
2023-01-19T02:06:00.487Z,4.78
2023-01-19T02:09:24.278Z,4.73
2023-01-19T02:12:09.666Z,4.77
2023-01-19T02:14:39.985Z,4.72
2023-01-19T02:17:07.689Z,4.75
2023-01-19T02:19:42.405Z,4.66
2023-01-19T02:22:36.067Z,4.70
2023-01-19T02:25:07.339Z,4.71
2023-01-19T02:27:34.672Z,4.70
2023-01-19T02:30:03.767Z,4.68
2023-01-19T02:32:30.894Z,4.69
2023-01-19T02:34:58.411Z,4.72
2023-01-19T02:37:29.268Z,4.59
2023-01-19T02:40:00.903Z,4.66
2023-01-19T02:42:32.571Z,4.64
2023-01-19T02:44:59.960Z,4.71
2023-01-19T02:47:27.054Z,4.65
2023-01-19T02:50:00.967Z,4.71
2023-01-19T02:52:28.452Z,4.65
2023-01-19T02:55:23.535Z,4.68
2023-01-19T02:57:56.779Z,4.67
2023-01-19T03:01:18.390Z,4.60
2023-01-19T03:04:06.181Z,4.58
2023-01-19T03:07:14.723Z,4.54
2023-01-19T03:10:00.773Z,4.53
2023-01-19T03:12:52.513Z,4.59
2023-01-19T03:15:50.384Z,4.57
2023-01-19T03:18:25.190Z,4.52
2023-01-19T03:20:57.571Z,4.46
2023-01-19T03:23:32.024Z,4.43
2023-01-19T03:26:00.784Z,4.42
2023-01-19T03:28:30.266Z,4.51
2023-01-19T03:31:15.819Z,4.49
2023-01-19T03:33:50.995Z,4.45
2023-01-19T03:36:31.550Z,4.49
2023-01-19T03:39:02.456Z,4.50
2023-01-19T03:41:32.484Z,4.46
2023-01-19T03:44:00.220Z,4.49
2023-01-19T03:46:28.485Z,4.35
2023-01-19T03:48:57.176Z,4.45
2023-01-19T03:51:24.621Z,4.48
2023-01-19T03:53:51.880Z,4.47
2023-01-19T03:56:25.706Z,4.51
2023-01-19T03:58:53.094Z,4.54
2023-01-19T04:01:23.423Z,4.56
2023-01-19T04:03:52.554Z,4.59
2023-01-19T04:06:21.457Z,4.56
2023-01-19T04:08:50.338Z,4.56
2023-01-19T04:11:17.586Z,4.59
2023-01-19T04:13:44.978Z,4.62
2023-01-19T04:16:12.597Z,4.60
2023-01-19T04:18:40.739Z,4.56
2023-01-19T04:21:08.354Z,4.50
2023-01-19T04:23:35.349Z,4.68
2023-01-19T04:26:06.419Z,4.60
2023-01-19T04:28:34.992Z,4.33
2023-01-19T04:31:02.020Z,4.43
2023-01-19T04:33:29.315Z,4.46
2023-01-19T04:35:56.865Z,4.48
2023-01-19T04:38:25.819Z,4.52
2023-01-19T04:40:54.216Z,4.48
2023-01-19T04:43:22.365Z,4.42
2023-01-19T04:45:49.905Z,4.41
2023-01-19T04:48:18.580Z,4.46
2023-01-19T04:50:46.045Z,4.44
2023-01-19T04:53:13.911Z,4.47
2023-01-19T04:55:46.875Z,4.46
2023-01-19T04:58:14.044Z,4.55
2023-01-19T05:00:41.143Z,4.50
2023-01-19T05:03:08.299Z,4.54
2023-01-19T05:05:35.491Z,4.57
2023-01-19T05:08:02.587Z,4.60
2023-01-19T05:10:29.669Z,4.54
2023-01-19T05:12:56.832Z,4.59
2023-01-19T05:15:23.973Z,4.57
2023-01-19T05:17:50.976Z,4.59
2023-01-19T05:20:18.644Z,4.65
2023-01-19T05:22:52.727Z,4.73
2023-01-19T05:25:20.031Z,4.72
2023-01-19T05:27:47.282Z,4.72
2023-01-19T05:30:16.378Z,4.78
2023-01-19T05:32:43.536Z,4.77
2023-01-19T05:35:10.697Z,4.75
2023-01-19T05:37:37.685Z,4.79
2023-01-19T05:40:05.552Z,4.82
2023-01-19T05:42:33.013Z,4.86
2023-01-19T05:45:00.313Z,4.83
2023-01-19T05:47:30.280Z,4.86
2023-01-19T05:49:57.633Z,4.90
2023-01-19T05:52:27.463Z,4.91
2023-01-19T05:54:55.200Z,4.90
2023-01-19T05:57:22.844Z,4.89
2023-01-19T05:59:50.112Z,4.96
2023-01-19T06:02:17.235Z,4.92
2023-01-19T06:04:44.892Z,4.92
2023-01-19T06:07:11.928Z,4.95
2023-01-19T06:09:38.884Z,4.95
2023-01-19T06:12:06.488Z,4.97
2023-01-19T06:14:33.438Z,4.94
2023-01-19T06:17:00.804Z,4.88
2023-01-19T06:19:27.824Z,4.89
2023-01-19T06:21:54.797Z,4.85
2023-01-19T06:24:21.964Z,4.85
2023-01-19T06:26:48.932Z,4.83
2023-01-19T06:29:16.071Z,4.78
2023-01-19T06:31:43.136Z,4.77
2023-01-19T06:34:10.496Z,4.75
2023-01-19T06:36:37.520Z,4.79
2023-01-19T06:39:06.124Z,4.77
2023-01-19T06:41:34.149Z,4.74
2023-01-19T06:44:02.213Z,4.73
2023-01-19T06:46:29.870Z,6.95
2023-01-19T06:48:57.281Z,8.26
2023-01-19T06:51:25.528Z,9.08
2023-01-19T06:53:52.591Z,9.65
2023-01-19T06:56:19.581Z,10.06
2023-01-19T06:58:48.499Z,10.37
2023-01-19T07:01:15.541Z,10.60
2023-01-19T07:03:42.754Z,10.79
2023-01-19T07:06:10.092Z,10.93
2023-01-19T07:08:38.611Z,11.07
2023-01-19T07:11:25.419Z,11.15
2023-01-19T07:13:56.381Z,11.23
2023-01-19T07:16:23.928Z,11.31
2023-01-19T07:18:51.463Z,11.35
2023-01-19T07:21:19.245Z,11.41
2023-01-19T07:23:49.749Z,11.44
2023-01-19T07:26:19.906Z,11.47
2023-01-19T07:28:48.362Z,11.51
2023-01-19T07:31:16.251Z,11.56
2023-01-19T07:33:43.404Z,11.58
2023-01-19T07:36:11.156Z,11.62
2023-01-19T07:38:38.206Z,11.65
2023-01-19T07:41:09.251Z,11.66
2023-01-19T07:43:36.341Z,11.70
2023-01-19T07:46:05.820Z,11.73
2023-01-19T07:48:33.080Z,11.73
2023-01-19T07:51:05.630Z,11.76
2023-01-19T07:53:32.991Z,11.79
2023-01-19T07:56:00.006Z,11.81
2023-01-19T07:58:27.067Z,11.82
2023-01-19T08:00:54.420Z,11.84
2023-01-19T08:03:21.453Z,11.85
2023-01-19T08:05:53.166Z,11.86
2023-01-19T08:08:20.582Z,11.87
2023-01-19T08:10:51.499Z,11.89
2023-01-19T08:13:18.723Z,11.89
2023-01-19T08:15:48.805Z,11.91
2023-01-19T08:18:15.829Z,11.93
2023-01-19T08:20:42.863Z,11.93
2023-01-19T08:23:10.599Z,11.93
2023-01-19T08:25:44.472Z,11.94
2023-01-19T08:28:14.851Z,11.95
2023-01-19T08:30:44.360Z,11.96
2023-01-19T08:33:12.883Z,11.97
2023-01-19T08:35:47.462Z,11.96
2023-01-19T08:38:14.714Z,11.98
2023-01-19T08:40:42.754Z,12.00
2023-01-19T08:43:16.091Z,11.98
2023-01-19T08:45:49.828Z,11.99
2023-01-19T08:48:22.409Z,11.98
2023-01-19T08:50:51.025Z,12.00
2023-01-19T08:53:21.089Z,12.01
2023-01-19T08:55:48.087Z,12.00
2023-01-19T08:58:15.380Z,12.01
2023-01-19T09:00:42.574Z,12.02
2023-01-19T09:03:13.481Z,12.02
2023-01-19T09:05:41.035Z,12.02
2023-01-19T09:08:11.046Z,12.03
2023-01-19T09:10:39.620Z,12.03
2023-01-19T09:13:10.974Z,12.03
2023-01-19T09:15:39.596Z,12.04
2023-01-19T09:18:12.103Z,12.04
2023-01-19T09:20:43.453Z,12.04
2023-01-19T09:23:12.939Z,12.04
2023-01-19T09:25:42.015Z,12.04
2023-01-19T09:28:11.295Z,12.04
2023-01-19T09:30:40.818Z,12.02
2023-01-19T09:33:16.868Z,12.01
2023-01-19T09:35:47.019Z,12.03
2023-01-19T09:38:16.823Z,12.04
2023-01-19T09:40:51.856Z,12.05
2023-01-19T09:43:53.084Z,12.05
2023-01-19T09:46:41.697Z,12.05
2023-01-19T09:49:25.339Z,12.06
2023-01-19T09:51:52.598Z,12.06
2023-01-19T09:54:36.704Z,12.06
2023-01-19T09:57:09.687Z,12.06
2023-01-19T09:59:37.189Z,12.07
2023-01-19T10:02:18.748Z,12.06
2023-01-19T10:05:27.471Z,12.07
2023-01-19T10:08:44.489Z,12.09
2023-01-19T10:11:52.578Z,12.10
2023-01-19T10:14:43.429Z,12.09
2023-01-19T10:18:01.291Z,12.10
2023-01-19T10:20:35.336Z,12.09
2023-01-19T10:23:14.609Z,12.11
2023-01-19T10:25:42.057Z,12.10
2023-01-19T10:28:11.350Z,12.11
2023-01-19T10:30:38.726Z,12.10
2023-01-19T10:33:05.690Z,12.10
2023-01-19T10:35:32.724Z,12.13
2023-01-19T10:38:02.770Z,12.11
2023-01-19T10:40:52.104Z,12.14
2023-01-19T10:43:34.383Z,12.13
2023-01-19T10:46:06.176Z,12.12
2023-01-19T10:48:42.099Z,12.15
2023-01-19T10:51:11.136Z,12.14
2023-01-19T10:53:38.370Z,12.14
2023-01-19T10:56:25.036Z,12.14
2023-01-19T10:58:52.299Z,12.14
2023-01-19T11:01:28.359Z,12.16
2023-01-19T11:04:05.633Z,12.16
2023-01-19T11:06:36.639Z,12.15
2023-01-19T11:09:15.861Z,12.17
2023-01-19T11:11:52.291Z,12.16
2023-01-19T11:14:23.026Z,12.16
2023-01-19T11:16:58.357Z,12.15
2023-01-19T11:19:32.345Z,12.16
2023-01-19T11:22:22.850Z,12.16
2023-01-19T11:24:50.286Z,12.16
2023-01-19T11:27:20.354Z,12.16
2023-01-19T11:30:18.359Z,12.15
2023-01-19T11:32:46.858Z,12.17
2023-01-19T11:35:38.959Z,12.16
2023-01-19T11:38:23.149Z,12.15
2023-01-19T11:40:57.223Z,12.16
2023-01-19T11:43:39.799Z,12.16
2023-01-19T11:46:15.291Z,12.17
2023-01-19T11:49:08.407Z,12.19
2023-01-19T11:51:56.610Z,12.19
2023-01-19T11:54:31.428Z,12.15
2023-01-19T11:57:00.742Z,12.16
2023-01-19T11:59:28.483Z,12.16
2023-01-19T12:02:00.825Z,12.17
2023-01-19T12:04:39.103Z,12.19
2023-01-19T12:07:10.679Z,12.15
2023-01-19T12:09:47.402Z,12.16
2023-01-19T12:12:33.683Z,12.18
2023-01-19T12:15:22.792Z,12.19
2023-01-19T12:17:53.658Z,12.20
2023-01-19T12:20:52.897Z,12.20
2023-01-19T12:23:32.384Z,12.20
2023-01-19T12:26:53.290Z,12.20
2023-01-19T12:29:23.772Z,12.19
2023-01-19T12:32:16.748Z,12.19
2023-01-19T12:34:51.975Z,12.21
2023-01-19T12:37:28.830Z,12.23
2023-01-19T12:39:59.443Z,12.24
2023-01-19T12:42:27.319Z,12.22
2023-01-19T12:45:27.632Z,12.21
2023-01-19T12:47:55.924Z,12.21
2023-01-19T12:50:29.645Z,12.21
2023-01-19T12:53:02.115Z,12.23
2023-01-19T12:55:33.297Z,12.21
2023-01-19T12:58:02.395Z,12.23
2023-01-19T13:00:36.803Z,12.18
2023-01-19T13:03:19.069Z,12.18
2023-01-19T13:05:54.668Z,12.17
2023-01-19T13:08:25.434Z,12.16
2023-01-19T13:11:05.504Z,12.15
2023-01-19T13:13:41.209Z,12.15
2023-01-19T13:16:20.149Z,12.15
2023-01-19T13:19:15.772Z,12.11
2023-01-19T13:21:48.755Z,12.14
2023-01-19T13:24:23.183Z,12.06
2023-01-19T13:26:50.018Z,12.10
2023-01-19T13:29:35.090Z,12.08
2023-01-19T13:32:24.236Z,12.12
2023-01-19T13:35:01.867Z,12.11
2023-01-19T13:37:40.437Z,12.10
2023-01-19T13:40:16.002Z,12.04
2023-01-19T13:42:44.016Z,12.07
2023-01-19T13:45:25.524Z,12.11
2023-01-19T13:47:54.959Z,12.02
2023-01-19T13:50:32.320Z,11.99
2023-01-19T13:53:00.164Z,12.01
2023-01-19T13:55:30.441Z,12.05
2023-01-19T13:57:58.212Z,12.09
2023-01-19T14:00:29.950Z,12.07
2023-01-19T14:03:18.573Z,12.05
2023-01-19T14:05:45.704Z,12.05
2023-01-19T14:08:15.406Z,12.03
2023-01-19T14:10:54.082Z,12.03
2023-01-19T14:13:29.405Z,12.02
2023-01-19T14:16:00.536Z,12.04
2023-01-19T14:18:33.419Z,12.04
2023-01-19T14:21:07.775Z,12.05
2023-01-19T14:23:52.587Z,12.05
2023-01-19T14:26:38.040Z,12.07
2023-01-19T14:29:16.853Z,12.07
2023-01-19T14:31:47.655Z,12.09
2023-01-19T14:34:45.474Z,12.09
2023-01-19T14:37:28.999Z,12.12
2023-01-19T14:40:10.805Z,12.13
2023-01-19T14:42:42.396Z,12.14
2023-01-19T14:45:21.142Z,12.16
2023-01-19T14:48:12.239Z,12.15
2023-01-19T14:50:51.059Z,12.15
2023-01-19T14:53:30.280Z,12.16
2023-01-19T14:56:04.642Z,12.16
2023-01-19T14:58:35.480Z,12.15
2023-01-19T15:01:03.041Z,12.15
2023-01-19T15:03:43.364Z,12.18
2023-01-19T15:06:19.037Z,12.19
2023-01-19T15:08:47.030Z,12.20
2023-01-19T15:11:35.928Z,12.20
2023-01-19T15:14:03.512Z,12.19
2023-01-19T15:16:34.263Z,12.22
2023-01-19T15:19:01.525Z,12.23
2023-01-19T15:21:28.500Z,12.24
2023-01-19T15:23:56.298Z,12.23
2023-01-19T15:26:26.127Z,12.24
2023-01-19T15:28:56.160Z,12.25
2023-01-19T15:31:25.498Z,12.26
2023-01-19T15:33:52.507Z,12.25
2023-01-19T15:36:22.310Z,12.23
2023-01-19T15:38:52.084Z,12.23
2023-01-19T15:41:27.839Z,12.24
2023-01-19T15:43:54.809Z,12.21
2023-01-19T15:46:23.776Z,12.21
2023-01-19T15:48:51.662Z,12.21
2023-01-19T15:51:22.555Z,12.23
2023-01-19T15:53:50.041Z,12.23
2023-01-19T15:56:21.104Z,12.25
2023-01-19T15:58:48.499Z,12.26
2023-01-19T16:01:18.523Z,7.52
2023-01-19T16:03:46.138Z,6.40
2023-01-19T16:06:13.837Z,5.94
2023-01-19T16:08:41.183Z,5.81
2023-01-19T16:11:11.506Z,5.76
2023-01-19T16:13:39.459Z,5.59
2023-01-19T16:16:17.235Z,5.54
2023-01-19T16:18:44.737Z,5.54
2023-01-19T16:21:12.189Z,5.38
2023-01-19T16:23:39.383Z,5.41
2023-01-19T16:26:22.369Z,5.41
2023-01-19T16:28:49.386Z,5.32
2023-01-19T16:31:16.726Z,5.35
2023-01-19T16:33:45.915Z,5.30
2023-01-19T16:36:30.760Z,5.24
2023-01-19T16:39:13.335Z,5.21
2023-01-19T16:41:41.657Z,5.23
2023-01-19T16:44:11.574Z,5.14
2023-01-19T16:46:43.429Z,5.15
2023-01-19T16:49:18.692Z,5.18
2023-01-19T16:51:45.960Z,5.08
2023-01-19T16:54:14.883Z,5.08
2023-01-19T16:56:42.297Z,5.04
2023-01-19T16:59:13.511Z,5.12
2023-01-19T17:01:40.884Z,5.15
2023-01-19T17:04:07.860Z,5.08
2023-01-19T17:06:35.045Z,5.06
2023-01-19T17:09:02.080Z,5.05
2023-01-19T17:11:31.016Z,4.98
2023-01-19T17:14:00.827Z,4.93
2023-01-19T17:16:29.249Z,4.92
2023-01-19T17:18:57.467Z,4.93
2023-01-19T17:21:24.782Z,4.90
2023-01-19T17:23:56.414Z,4.86
2023-01-19T17:26:28.480Z,4.84
2023-01-19T17:29:03.865Z,4.71
2023-01-19T17:31:32.154Z,4.78
2023-01-19T17:34:00.168Z,4.70
2023-01-19T17:36:28.675Z,4.68
2023-01-19T17:38:58.859Z,4.72
2023-01-19T17:41:28.269Z,4.71
2023-01-19T17:43:56.009Z,4.75
2023-01-19T17:46:25.099Z,4.68
2023-01-19T17:48:57.370Z,4.69
2023-01-19T17:51:25.151Z,4.59
2023-01-19T17:53:52.745Z,4.62
2023-01-19T17:56:21.975Z,4.63
2023-01-19T17:58:49.803Z,4.63
2023-01-19T18:01:22.197Z,4.59
2023-01-19T18:03:49.552Z,4.57
2023-01-19T18:06:16.863Z,4.52
2023-01-19T18:08:46.245Z,4.56
2023-01-19T18:11:13.923Z,4.56
2023-01-19T18:13:43.378Z,4.54
2023-01-19T18:16:16.110Z,4.51
2023-01-19T18:18:44.147Z,4.55
2023-01-19T18:21:13.794Z,4.53
2023-01-19T18:23:43.368Z,4.53
2023-01-19T18:26:12.882Z,4.53
2023-01-19T18:28:40.109Z,4.58
2023-01-19T18:31:08.788Z,4.44
2023-01-19T18:33:36.252Z,4.43
2023-01-19T18:36:03.519Z,4.50
2023-01-19T18:38:30.398Z,4.39
2023-01-19T18:41:23.594Z,4.44
2023-01-19T18:43:51.969Z,4.40
2023-01-19T18:46:19.023Z,4.40
2023-01-19T18:48:46.016Z,4.45
2023-01-19T18:51:14.699Z,4.43
2023-01-19T18:53:41.864Z,4.45
2023-01-19T18:56:11.337Z,4.44
2023-01-19T18:58:39.233Z,4.48
2023-01-19T19:01:33.112Z,4.44
2023-01-19T19:04:00.863Z,4.46
2023-01-19T19:06:28.039Z,4.43
2023-01-19T19:08:56.588Z,4.45
2023-01-19T19:11:24.655Z,4.46
2023-01-19T19:13:57.482Z,4.41
2023-01-19T19:16:24.552Z,4.39
2023-01-19T19:18:51.593Z,4.41
2023-01-19T19:21:19.481Z,4.42
2023-01-19T19:23:54.039Z,4.28
2023-01-19T19:26:21.525Z,4.35
2023-01-19T19:28:48.454Z,4.29
2023-01-19T19:31:20.454Z,4.32
2023-01-19T19:33:48.622Z,4.32
2023-01-19T19:36:15.605Z,4.26
2023-01-19T19:38:44.406Z,4.27
2023-01-19T19:41:19.801Z,4.23
2023-01-19T19:43:46.858Z,4.22
2023-01-19T19:46:15.661Z,4.21
2023-01-19T19:48:42.641Z,4.20
2023-01-19T19:51:18.176Z,4.19
2023-01-19T19:53:46.391Z,4.16
2023-01-19T19:56:13.641Z,4.22
2023-01-19T19:58:44.338Z,4.22
2023-01-19T20:01:14.357Z,4.24
2023-01-19T20:03:41.903Z,4.22
2023-01-19T20:06:11.450Z,4.14
2023-01-19T20:08:38.400Z,4.17
2023-01-19T20:11:10.631Z,4.16
2023-01-19T20:13:38.882Z,4.18
2023-01-19T20:16:10.253Z,4.14
2023-01-19T20:18:38.657Z,4.16
2023-01-19T20:21:23.235Z,4.17
2023-01-19T20:23:50.700Z,3.99
2023-01-19T20:26:20.030Z,4.12
2023-01-19T20:28:47.585Z,4.05
2023-01-19T20:31:20.916Z,4.13
2023-01-19T20:33:48.957Z,4.15
2023-01-19T20:36:15.845Z,4.12
2023-01-19T20:38:42.745Z,4.22
2023-01-19T20:41:11.196Z,4.12
2023-01-19T20:43:38.707Z,4.16
2023-01-19T20:46:06.266Z,4.20
2023-01-19T20:48:33.308Z,4.21
2023-01-19T20:51:11.651Z,4.20
2023-01-19T20:53:40.080Z,4.23
2023-01-19T20:56:14.778Z,4.20
2023-01-19T20:58:42.047Z,4.18
2023-01-19T21:01:13.908Z,4.21
2023-01-19T21:03:40.907Z,4.22
2023-01-19T21:06:07.923Z,4.22
2023-01-19T21:08:35.407Z,4.20
2023-01-19T21:11:02.538Z,4.24
2023-01-19T21:13:29.452Z,4.27
2023-01-19T21:15:56.321Z,4.18
2023-01-19T21:18:23.311Z,4.20
2023-01-19T21:20:50.409Z,4.28
2023-01-19T21:23:19.106Z,4.23
2023-01-19T21:25:53.552Z,4.21
2023-01-19T21:28:22.666Z,4.17
2023-01-19T21:30:50.438Z,4.25
2023-01-19T21:33:17.543Z,4.29
2023-01-19T21:35:55.278Z,4.22
2023-01-19T21:38:23.462Z,4.20
2023-01-19T21:40:50.674Z,4.20
2023-01-19T21:43:19.993Z,4.27
2023-01-19T21:45:47.909Z,4.23
2023-01-19T21:48:15.403Z,4.28
2023-01-19T21:50:42.420Z,4.22
2023-01-19T21:53:11.283Z,4.25
2023-01-19T21:55:42.741Z,4.26
2023-01-19T21:58:09.631Z,4.31
2023-01-19T22:00:36.537Z,4.35
2023-01-19T22:03:04.747Z,4.43
2023-01-19T22:05:36.957Z,4.41
2023-01-19T22:08:06.304Z,4.42
2023-01-19T22:10:37.080Z,4.46
2023-01-19T22:13:06.621Z,4.43
2023-01-19T22:15:33.727Z,4.45
2023-01-19T22:18:00.652Z,4.47
2023-01-19T22:20:27.615Z,4.45
2023-01-19T22:22:55.496Z,4.47
2023-01-19T22:25:27.556Z,4.46
2023-01-19T22:27:55.348Z,4.50
2023-01-19T22:30:22.344Z,4.44
2023-01-19T22:32:49.310Z,4.44
2023-01-19T22:35:16.451Z,4.43
2023-01-19T22:37:43.295Z,4.41
2023-01-19T22:40:10.974Z,4.45
2023-01-19T22:42:37.811Z,4.43
2023-01-19T22:45:04.985Z,4.44
2023-01-19T22:47:31.923Z,4.47
2023-01-19T22:49:58.770Z,4.45
2023-01-19T22:52:25.645Z,4.51
2023-01-19T22:54:56.219Z,4.50
2023-01-19T22:57:23.107Z,4.52
2023-01-19T22:59:50.050Z,4.50
2023-01-19T23:02:18.638Z,4.49
2023-01-19T23:04:47.383Z,4.44
2023-01-19T23:07:14.366Z,4.41
2023-01-19T23:09:41.257Z,4.40
2023-01-19T23:12:08.109Z,4.41
2023-01-19T23:14:36.201Z,4.43
2023-01-19T23:17:03.114Z,4.39
2023-01-19T23:19:29.978Z,4.42
2023-01-19T23:21:56.944Z,4.42
2023-01-19T23:24:23.770Z,4.40
2023-01-19T23:26:50.917Z,4.43
2023-01-19T23:29:18.095Z,4.43
2023-01-19T23:31:47.202Z,4.39
2023-01-19T23:34:14.399Z,4.38
2023-01-19T23:36:42.549Z,4.40
2023-01-19T23:39:22.461Z,4.39
2023-01-19T23:41:49.873Z,4.45
2023-01-19T23:44:17.358Z,4.52
2023-01-19T23:46:44.561Z,4.38
2023-01-19T23:49:12.542Z,4.37
2023-01-19T23:51:40.049Z,4.43
2023-01-19T23:54:07.493Z,4.42
2023-01-19T23:56:36.326Z,4.46
2023-01-19T23:59:08.988Z,4.43
